Costa Mediterranea — IBCF — position and weather

sailwx.info

Track history (hours):
 
Tides and Currents Weather Stations Pressure Air Temp Water Temp Dewpoint Dewpoint Depression Visibility Wind Speed Wind Dir Waves Ship Positions

Costa Mediterranea

Last reported at 2017-Apr-30 14:25 UTC. Time now 2017-Apr-30 14:47 UTC.
Position N 44°19' E 008°29'.

Length 293 m; draft 8 m.

Type: Passenger vessel. MMSI: 247088200.

Date/timePositionNaut miles runAvg speedWind from/ knotsBaromVisibWave heightAir tempDewpointWater temp
2017-Apr-30 14:25N 44°19' E 008°29'0 0.0
2017-Apr-30 13:28N 44°19' E 008°29'0 0.0
2017-Apr-30 12:58N 44°19' E 008°29'0 0.0
2017-Apr-30 12:25N 44°19' E 008°29'0 0.0
2017-Apr-30 11:58N 44°19' E 008°29'0 0.0
2017-Apr-30 11:28N 44°19' E 008°29'0 0.0
2017-Apr-30 10:58N 44°19' E 008°29'0 0.0
2017-Apr-30 10:28N 44°19' E 008°29'0 0.0
2017-Apr-30 09:58N 44°19' E 008°29'0 0.0
2017-Apr-30 09:28N 44°19' E 008°29'0 0.0
2017-Apr-30 08:58N 44°19' E 008°29'0 0.0
2017-Apr-30 08:28N 44°19' E 008°29'0 0.0
2017-Apr-30 07:58N 44°19' E 008°29'0 0.0
2017-Apr-30 07:28N 44°19' E 008°29'0 0.0
2017-Apr-30 06:58N 44°19' E 008°29'0 0.0
2017-Apr-30 06:28N 44°19' E 008°29'0 0.7
2017-Apr-30 06:00N 44°19' E 008°30'3 6.8
2017-Apr-30 05:30N 44°16' E 008°32'918.3
2017-Apr-30 05:00N 44°08' E 008°26'3519.5
2017-Apr-30 03:13N 43°40' E 007°56'419.3
2017-Apr-30 03:00N 43°37' E 007°53'1019.6
2017-Apr-30 02:30N 43°30' E 007°43'1019.8
2017-Apr-30 02:00N 43°23' E 007°33'1019.6
2017-Apr-30 01:30N 43°17' E 007°24'1118.7
2017-Apr-30 00:55N 43°09' E 007°13'818.6
2017-Apr-30 00:30N 43°03' E 007°06'26212.3
2017-Apr-29 03:07N 40°57' E 001°56'218.4
2017-Apr-29 03:00N 40°55' E 001°55'918.8
2017-Apr-29 02:30N 40°47' E 001°49'918.9
2017-Apr-29 02:00N 40°38' E 001°43'918.7
2017-Apr-29 01:30N 40°30' E 001°38'917.1
2017-Apr-29 01:00N 40°23' E 001°31'815.1
2017-Apr-29 00:30N 40°16' E 001°26'714.4
2017-Apr-29 00:00N 40°10' E 001°22'714.4
2017-Apr-28 23:30N 40°04' E 001°17'714.4
2017-Apr-28 23:00N 39°58' E 001°12'6913.4
2017-Apr-28 17:54N 39°26' W 000°07'614.7
2017-Apr-28 17:31N 39°25' W 000°14'5 0.7
2017-Apr-28 10:55N 39°27' W 000°19'0 0.0
2017-Apr-28 10:30N 39°27' W 000°19'0 0.4
2017-Apr-28 10:00N 39°27' W 000°19'2 4.7
2017-Apr-28 09:30N 39°25' W 000°17'9713.2
2017-Apr-28 02:09N 37°48' W 000°19'417.4
2017-Apr-28 01:56N 37°45' W 000°22'717.3
2017-Apr-28 01:31N 37°39' W 000°26'917.1
2017-Apr-28 01:00N 37°32' W 000°33'817.0
2017-Apr-28 00:30N 37°26' W 000°41'917.0
2017-Apr-28 00:00N 37°20' W 000°49'1116.9
2017-Apr-27 23:22N 37°13' W 000°59'20314.2
2017-Apr-27 09:03N 36°03' W 004°57'317.0
2017-Apr-27 08:51N 36°02' W 005°01'717.0
2017-Apr-27 08:28N 36°01' W 005°09'816.7
2017-Apr-27 08:00N 35°59' W 005°18'1121.4
2017-Apr-27 07:30N 35°56' W 005°31'21715.9
2017-Apr-26 17:50N 37°35' W 009°32'618.2
2017-Apr-26 17:31N 37°41' W 009°31'918.2
2017-Apr-26 17:01N 37°50' W 009°30'918.1
2017-Apr-26 16:30N 37°59' W 009°29'918.4
2017-Apr-26 16:01N 38°09' W 009°28'918.1
2017-Apr-26 15:31N 38°18' W 009°27'918.3
2017-Apr-26 15:01N 38°27' W 009°27'1616.1
2017-Apr-26 14:00N 38°41' W 009°17'5 9.9
2017-Apr-26 13:29N 38°41' W 009°10'3 4.6
2017-Apr-26 12:53N 38°43' W 009°07'0 0.0
2017-Apr-26 11:53N 38°43' W 009°07'0 0.0
2017-Apr-26 11:23N 38°43' W 009°07'0 0.0
2017-Apr-26 10:59N 38°43' W 009°07'0 0.0
2017-Apr-26 10:17N 38°43' W 009°07'0 0.0
2017-Apr-26 09:59N 38°43' W 009°07'0 0.0
2017-Apr-26 09:29N 38°43' W 009°07'0 0.0
2017-Apr-26 08:59N 38°43' W 009°07'0 0.0
2017-Apr-26 08:29N 38°43' W 009°07'0 0.0
2017-Apr-26 07:59N 38°43' W 009°07'0 0.0
2017-Apr-26 07:29N 38°43' W 009°07'0 0.0
2017-Apr-26 06:59N 38°43' W 009°07'0 0.0
2017-Apr-26 06:29N 38°43' W 009°07'0 0.0
2017-Apr-26 05:59N 38°43' W 009°07'0 0.0
2017-Apr-26 05:29N 38°43' W 009°07'0 0.0
2017-Apr-26 04:53N 38°43' W 009°07'0 0.0
2017-Apr-26 04:26N 38°43' W 009°07'0 0.0
2017-Apr-26 03:59N 38°43' W 009°07'0 0.0
2017-Apr-26 03:29N 38°43' W 009°07'0 0.0
2017-Apr-26 02:57N 38°43' W 009°07'0 0.0
2017-Apr-26 02:28N 38°43' W 009°07'0 0.0
2017-Apr-26 00:38N 38°43' W 009°07'0 0.0
2017-Apr-26 00:14N 38°43' W 009°07'0 0.0
2017-Apr-25 23:59N 38°43' W 009°07'0 0.0
2017-Apr-25 23:29N 38°43' W 009°07'0 0.0
2017-Apr-25 22:56N 38°43' W 009°07'0 0.0
2017-Apr-25 22:02N 38°43' W 009°07'0 0.0
2017-Apr-25 21:56N 38°43' W 009°07'0 0.0
2017-Apr-25 21:26N 38°43' W 009°07'0 0.0
2017-Apr-25 20:59N 38°43' W 009°07'0 0.0
2017-Apr-25 20:26N 38°43' W 009°07'0 0.0
2017-Apr-25 19:59N 38°43' W 009°07'0 0.0
2017-Apr-25 19:29N 38°43' W 009°07'0 0.0
2017-Apr-25 18:56N 38°43' W 009°07'0 0.0
2017-Apr-25 18:29N 38°43' W 009°07'0 0.0
2017-Apr-25 17:59N 38°43' W 009°07'0 0.0
2017-Apr-25 17:26N 38°43' W 009°07'0 0.0
2017-Apr-25 16:59N 38°43' W 009°07'0 0.0
2017-Apr-25 16:29N 38°43' W 009°07'0 0.0
2017-Apr-25 15:56N 38°43' W 009°07'0 0.0
2017-Apr-25 15:17N 38°43' W 009°07'0 0.0
2017-Apr-25 14:59N 38°43' W 009°07'0 0.0
2017-Apr-25 14:17N 38°43' W 009°07'0 0.0
2017-Apr-25 11:16N 38°43' W 009°07'0 0.0
2017-Apr-25 10:58N 38°43' W 009°07'0 0.0
2017-Apr-25 10:08N 38°43' W 009°07'0 0.0
2017-Apr-25 09:54N 38°43' W 009°07'0 0.0
2017-Apr-25 09:30N 38°43' W 009°07'0 0.0
2017-Apr-25 08:59N 38°43' W 009°07'0 0.0
2017-Apr-25 08:25N 38°43' W 009°07'0 0.0
2017-Apr-25 08:00N 38°43' W 009°07'1 2.9
2017-Apr-25 07:30N 38°42' W 009°09'4 7.4
2017-Apr-25 07:00N 38°41' W 009°14'611.4
2017-Apr-25 06:30N 38°39' W 009°20'815.2
2017-Apr-25 06:00N 38°33' W 009°25'918.1
2017-Apr-25 05:30N 38°23' W 009°25'918.4
2017-Apr-25 05:00N 38°14' W 009°25'918.3
2017-Apr-25 04:30N 38°05' W 009°25'918.3
2017-Apr-25 04:00N 37°56' W 009°24'918.4
2017-Apr-25 03:30N 37°47' W 009°24'1118.3
2017-Apr-25 02:52N 37°35' W 009°23'818.4
2017-Apr-25 02:26N 37°27' W 009°22'1218.8
2017-Apr-25 01:48N 37°15' W 009°21'1019.0
2017-Apr-25 01:15N 37°05' W 009°22'519.0
2017-Apr-25 01:00N 37°00' W 009°21'2617.3
2017-Apr-24 23:30N 36°43' W 008°57'1019.0
2017-Apr-24 23:00N 36°41' W 008°45'919.0
2017-Apr-24 22:30N 36°41' W 008°33'1618.9
2017-Apr-24 21:39N 36°39' W 008°13'131 5.8
2017-Apr-23 23:10N 35°58' W 005°38'215.0
2017-Apr-23 23:00N 35°58' W 005°35'714.2
2017-Apr-23 22:30N 35°60' W 005°27'713.6
2017-Apr-23 22:00N 36°02' W 005°19'714.3
2017-Apr-23 21:30N 36°04' W 005°10'224 7.6
2017-Apr-22 16:03N 37°23' W 000°49'218.2
2017-Apr-22 15:58N 37°24' W 000°47'1318.1
2017-Apr-22 15:16N 37°33' W 000°36'518.1
2017-Apr-22 15:00N 37°36' W 000°32'917.9
2017-Apr-22 14:30N 37°43' W 000°24'12818.2
2017-Apr-22 07:27N 39°28' E 001°10'1418.3
2017-Apr-22 06:41N 39°39' E 001°21'318.6
2017-Apr-22 06:30N 39°42' E 001°24'918.6
2017-Apr-22 06:01N 39°49' E 001°31'1018.7
2017-Apr-22 05:30N 39°56' E 001°39'918.7
2017-Apr-22 05:00N 40°03' E 001°47'918.8
2017-Apr-22 04:30N 40°11' E 001°54'918.9
2017-Apr-22 04:00N 40°18' E 002°02'1019.2
2017-Apr-22 03:30N 40°26' E 002°10'1019.2
2017-Apr-22 03:00N 40°33' E 002°18'918.7
2017-Apr-22 02:30N 40°40' E 002°26'918.4
2017-Apr-22 02:01N 40°48' E 002°33'918.4
2017-Apr-22 01:30N 40°55' E 002°41'918.3
2017-Apr-22 01:01N 41°02' E 002°48'2518.7
2017-Apr-21 23:42N 41°21' E 003°09'518.8
2017-Apr-21 23:27N 41°25' E 003°13'6118.6
2017-Apr-21 20:11N 42°12' E 004°03'5618.2
2017-Apr-21 17:06N 42°56' E 004°51'1718.4
2017-Apr-21 16:12N 43°09' E 005°04'318.2
2017-Apr-21 16:01N 43°12' E 005°07'917.9
2017-Apr-21 15:30N 43°19' E 005°16'4 1.5
2017-Apr-21 13:05N 43°21' E 005°20'0 0.0
2017-Apr-21 12:35N 43°21' E 005°20'0 0.0
2017-Apr-21 12:11N 43°21' E 005°20'0 0.0
2017-Apr-21 11:53N 43°21' E 005°20'0 0.0
2017-Apr-21 09:53N 43°21' E 005°20'0 0.0
2017-Apr-21 09:29N 43°21' E 005°20'0 0.0
2017-Apr-21 06:17N 43°21' E 005°20'0 1.0
2017-Apr-21 05:56N 43°21' E 005°20'2 5.8
2017-Apr-21 05:30N 43°20' E 005°16'5 9.3
2017-Apr-21 04:56N 43°16' E 005°11'611.8
2017-Apr-21 04:27N 43°11' E 005°11'8912.3
2017-Apr-20 21:15N 43°11' E 007°12'414.4
2017-Apr-20 21:00N 43°13' E 007°16'714.7
2017-Apr-20 20:30N 43°18' E 007°24'814.9
2017-Apr-20 19:58N 43°23' E 007°32'715.1
2017-Apr-20 19:30N 43°28' E 007°39'815.3
2017-Apr-20 19:00N 43°33' E 007°47'1914.9
2017-Apr-20 17:42N 43°47' E 008°05'314.5
2017-Apr-20 17:30N 43°50' E 008°08'714.4
2017-Apr-20 17:00N 43°55' E 008°15'714.3
2017-Apr-20 16:30N 44°00' E 008°21'714.0
2017-Apr-20 16:01N 44°06' E 008°27'713.3
2017-Apr-20 15:30N 44°12' E 008°32'612.6
2017-Apr-20 15:00N 44°18' E 008°32'2 3.9
2017-Apr-20 14:27N 44°19' E 008°29'  
Track history (hours):
 
Tides and Currents Weather Stations Pressure Air Temp Water Temp Dewpoint Dewpoint Depression Visibility Wind Speed Wind Dir Waves Ship Positions

Costa Mediterranea

Last reported at 2017-Apr-30 14:25 UTC. Time now 2017-Apr-30 14:47 UTC.
Position N 44°19' E 008°29'.

Length 293 m; draft 8 m.

Type: Passenger vessel. MMSI: 247088200.

Date/timePositionNaut miles runAvg speedWind from/ knotsBaromVisibWave heightAir tempDewpointWater temp
2017-Apr-30 14:25N 44°19' E 008°29'0 0.0
2017-Apr-30 13:28N 44°19' E 008°29'0 0.0
2017-Apr-30 12:58N 44°19' E 008°29'0 0.0
2017-Apr-30 12:25N 44°19' E 008°29'0 0.0
2017-Apr-30 11:58N 44°19' E 008°29'0 0.0
2017-Apr-30 11:28N 44°19' E 008°29'0 0.0
2017-Apr-30 10:58N 44°19' E 008°29'0 0.0
2017-Apr-30 10:28N 44°19' E 008°29'0 0.0
2017-Apr-30 09:58N 44°19' E 008°29'0 0.0
2017-Apr-30 09:28N 44°19' E 008°29'0 0.0
2017-Apr-30 08:58N 44°19' E 008°29'0 0.0
2017-Apr-30 08:28N 44°19' E 008°29'0 0.0
2017-Apr-30 07:58N 44°19' E 008°29'0 0.0
2017-Apr-30 07:28N 44°19' E 008°29'0 0.0
2017-Apr-30 06:58N 44°19' E 008°29'0 0.0
2017-Apr-30 06:28N 44°19' E 008°29'0 0.7
2017-Apr-30 06:00N 44°19' E 008°30'3 6.8
2017-Apr-30 05:30N 44°16' E 008°32'918.3
2017-Apr-30 05:00N 44°08' E 008°26'3519.5
2017-Apr-30 03:13N 43°40' E 007°56'419.3
2017-Apr-30 03:00N 43°37' E 007°53'1019.6
2017-Apr-30 02:30N 43°30' E 007°43'1019.8
2017-Apr-30 02:00N 43°23' E 007°33'1019.6
2017-Apr-30 01:30N 43°17' E 007°24'1118.7
2017-Apr-30 00:55N 43°09' E 007°13'818.6
2017-Apr-30 00:30N 43°03' E 007°06'26212.3
2017-Apr-29 03:07N 40°57' E 001°56'218.4
2017-Apr-29 03:00N 40°55' E 001°55'918.8
2017-Apr-29 02:30N 40°47' E 001°49'918.9
2017-Apr-29 02:00N 40°38' E 001°43'918.7
2017-Apr-29 01:30N 40°30' E 001°38'917.1
2017-Apr-29 01:00N 40°23' E 001°31'815.1
2017-Apr-29 00:30N 40°16' E 001°26'714.4
2017-Apr-29 00:00N 40°10' E 001°22'714.4
2017-Apr-28 23:30N 40°04' E 001°17'714.4
2017-Apr-28 23:00N 39°58' E 001°12'6913.4
2017-Apr-28 17:54N 39°26' W 000°07'614.7
2017-Apr-28 17:31N 39°25' W 000°14'5 0.7
2017-Apr-28 10:55N 39°27' W 000°19'0 0.0
2017-Apr-28 10:30N 39°27' W 000°19'0 0.4
2017-Apr-28 10:00N 39°27' W 000°19'2 4.7
2017-Apr-28 09:30N 39°25' W 000°17'9713.2
2017-Apr-28 02:09N 37°48' W 000°19'417.4
2017-Apr-28 01:56N 37°45' W 000°22'717.3
2017-Apr-28 01:31N 37°39' W 000°26'917.1
2017-Apr-28 01:00N 37°32' W 000°33'817.0
2017-Apr-28 00:30N 37°26' W 000°41'917.0
2017-Apr-28 00:00N 37°20' W 000°49'1116.9
2017-Apr-27 23:22N 37°13' W 000°59'20314.2
2017-Apr-27 09:03N 36°03' W 004°57'317.0
2017-Apr-27 08:51N 36°02' W 005°01'717.0
2017-Apr-27 08:28N 36°01' W 005°09'816.7
2017-Apr-27 08:00N 35°59' W 005°18'1121.4
2017-Apr-27 07:30N 35°56' W 005°31'21715.9
2017-Apr-26 17:50N 37°35' W 009°32'618.2
2017-Apr-26 17:31N 37°41' W 009°31'918.2
2017-Apr-26 17:01N 37°50' W 009°30'918.1
2017-Apr-26 16:30N 37°59' W 009°29'918.4
2017-Apr-26 16:01N 38°09' W 009°28'918.1
2017-Apr-26 15:31N 38°18' W 009°27'918.3
2017-Apr-26 15:01N 38°27' W 009°27'1616.1
2017-Apr-26 14:00N 38°41' W 009°17'5 9.9
2017-Apr-26 13:29N 38°41' W 009°10'3 4.6
2017-Apr-26 12:53N 38°43' W 009°07'0 0.0
2017-Apr-26 11:53N 38°43' W 009°07'0 0.0
2017-Apr-26 11:23N 38°43' W 009°07'0 0.0
2017-Apr-26 10:59N 38°43' W 009°07'0 0.0
2017-Apr-26 10:17N 38°43' W 009°07'0 0.0
2017-Apr-26 09:59N 38°43' W 009°07'0 0.0
2017-Apr-26 09:29N 38°43' W 009°07'0 0.0
2017-Apr-26 08:59N 38°43' W 009°07'0 0.0
2017-Apr-26 08:29N 38°43' W 009°07'0 0.0
2017-Apr-26 07:59N 38°43' W 009°07'0 0.0
2017-Apr-26 07:29N 38°43' W 009°07'0 0.0
2017-Apr-26 06:59N 38°43' W 009°07'0 0.0
2017-Apr-26 06:29N 38°43' W 009°07'0 0.0
2017-Apr-26 05:59N 38°43' W 009°07'0 0.0
2017-Apr-26 05:29N 38°43' W 009°07'0 0.0
2017-Apr-26 04:53N 38°43' W 009°07'0 0.0
2017-Apr-26 04:26N 38°43' W 009°07'0 0.0
2017-Apr-26 03:59N 38°43' W 009°07'0 0.0
2017-Apr-26 03:29N 38°43' W 009°07'0 0.0
2017-Apr-26 02:57N 38°43' W 009°07'0 0.0
2017-Apr-26 02:28N 38°43' W 009°07'0 0.0
2017-Apr-26 00:38N 38°43' W 009°07'0 0.0
2017-Apr-26 00:14N 38°43' W 009°07'0 0.0
2017-Apr-25 23:59N 38°43' W 009°07'0 0.0
2017-Apr-25 23:29N 38°43' W 009°07'0 0.0
2017-Apr-25 22:56N 38°43' W 009°07'0 0.0
2017-Apr-25 22:02N 38°43' W 009°07'0 0.0
2017-Apr-25 21:56N 38°43' W 009°07'0 0.0
2017-Apr-25 21:26N 38°43' W 009°07'0 0.0
2017-Apr-25 20:59N 38°43' W 009°07'0 0.0
2017-Apr-25 20:26N 38°43' W 009°07'0 0.0
2017-Apr-25 19:59N 38°43' W 009°07'0 0.0
2017-Apr-25 19:29N 38°43' W 009°07'0 0.0
2017-Apr-25 18:56N 38°43' W 009°07'0 0.0
2017-Apr-25 18:29N 38°43' W 009°07'0 0.0
2017-Apr-25 17:59N 38°43' W 009°07'0 0.0
2017-Apr-25 17:26N 38°43' W 009°07'0 0.0
2017-Apr-25 16:59N 38°43' W 009°07'0 0.0
2017-Apr-25 16:29N 38°43' W 009°07'0 0.0
2017-Apr-25 15:56N 38°43' W 009°07'0 0.0
2017-Apr-25 15:17N 38°43' W 009°07'0 0.0
2017-Apr-25 14:59N 38°43' W 009°07'0 0.0
2017-Apr-25 14:17N 38°43' W 009°07'0 0.0
2017-Apr-25 11:16N 38°43' W 009°07'0 0.0
2017-Apr-25 10:58N 38°43' W 009°07'0 0.0
2017-Apr-25 10:08N 38°43' W 009°07'0 0.0
2017-Apr-25 09:54N 38°43' W 009°07'0 0.0
2017-Apr-25 09:30N 38°43' W 009°07'0 0.0
2017-Apr-25 08:59N 38°43' W 009°07'0 0.0
2017-Apr-25 08:25N 38°43' W 009°07'0 0.0
2017-Apr-25 08:00N 38°43' W 009°07'1 2.9
2017-Apr-25 07:30N 38°42' W 009°09'4 7.4
2017-Apr-25 07:00N 38°41' W 009°14'611.4
2017-Apr-25 06:30N 38°39' W 009°20'815.2
2017-Apr-25 06:00N 38°33' W 009°25'918.1
2017-Apr-25 05:30N 38°23' W 009°25'918.4
2017-Apr-25 05:00N 38°14' W 009°25'918.3
2017-Apr-25 04:30N 38°05' W 009°25'918.3
2017-Apr-25 04:00N 37°56' W 009°24'918.4
2017-Apr-25 03:30N 37°47' W 009°24'1118.3
2017-Apr-25 02:52N 37°35' W 009°23'818.4
2017-Apr-25 02:26N 37°27' W 009°22'1218.8
2017-Apr-25 01:48N 37°15' W 009°21'1019.0
2017-Apr-25 01:15N 37°05' W 009°22'519.0
2017-Apr-25 01:00N 37°00' W 009°21'2617.3
2017-Apr-24 23:30N 36°43' W 008°57'1019.0
2017-Apr-24 23:00N 36°41' W 008°45'919.0
2017-Apr-24 22:30N 36°41' W 008°33'1618.9
2017-Apr-24 21:39N 36°39' W 008°13'131 5.8
2017-Apr-23 23:10N 35°58' W 005°38'215.0
2017-Apr-23 23:00N 35°58' W 005°35'714.2
2017-Apr-23 22:30N 35°60' W 005°27'713.6
2017-Apr-23 22:00N 36°02' W 005°19'714.3
2017-Apr-23 21:30N 36°04' W 005°10'224 7.6
2017-Apr-22 16:03N 37°23' W 000°49'218.2
2017-Apr-22 15:58N 37°24' W 000°47'1318.1
2017-Apr-22 15:16N 37°33' W 000°36'518.1
2017-Apr-22 15:00N 37°36' W 000°32'917.9
2017-Apr-22 14:30N 37°43' W 000°24'12818.2
2017-Apr-22 07:27N 39°28' E 001°10'1418.3
2017-Apr-22 06:41N 39°39' E 001°21'318.6
2017-Apr-22 06:30N 39°42' E 001°24'918.6
2017-Apr-22 06:01N 39°49' E 001°31'1018.7
2017-Apr-22 05:30N 39°56' E 001°39'918.7
2017-Apr-22 05:00N 40°03' E 001°47'918.8
2017-Apr-22 04:30N 40°11' E 001°54'918.9
2017-Apr-22 04:00N 40°18' E 002°02'1019.2
2017-Apr-22 03:30N 40°26' E 002°10'1019.2
2017-Apr-22 03:00N 40°33' E 002°18'918.7
2017-Apr-22 02:30N 40°40' E 002°26'918.4
2017-Apr-22 02:01N 40°48' E 002°33'918.4
2017-Apr-22 01:30N 40°55' E 002°41'918.3
2017-Apr-22 01:01N 41°02' E 002°48'2518.7
2017-Apr-21 23:42N 41°21' E 003°09'518.8
2017-Apr-21 23:27N 41°25' E 003°13'6118.6
2017-Apr-21 20:11N 42°12' E 004°03'5618.2
2017-Apr-21 17:06N 42°56' E 004°51'1718.4
2017-Apr-21 16:12N 43°09' E 005°04'318.2
2017-Apr-21 16:01N 43°12' E 005°07'917.9
2017-Apr-21 15:30N 43°19' E 005°16'4 1.5
2017-Apr-21 13:05N 43°21' E 005°20'0 0.0
2017-Apr-21 12:35N 43°21' E 005°20'0 0.0
2017-Apr-21 12:11N 43°21' E 005°20'0 0.0
2017-Apr-21 11:53N 43°21' E 005°20'0 0.0
2017-Apr-21 09:53N 43°21' E 005°20'0 0.0
2017-Apr-21 09:29N 43°21' E 005°20'0 0.0
2017-Apr-21 06:17N 43°21' E 005°20'0 1.0
2017-Apr-21 05:56N 43°21' E 005°20'2 5.8
2017-Apr-21 05:30N 43°20' E 005°16'5 9.3
2017-Apr-21 04:56N 43°16' E 005°11'611.8
2017-Apr-21 04:27N 43°11' E 005°11'8912.3
2017-Apr-20 21:15N 43°11' E 007°12'414.4
2017-Apr-20 21:00N 43°13' E 007°16'714.7
2017-Apr-20 20:30N 43°18' E 007°24'814.9
2017-Apr-20 19:58N 43°23' E 007°32'715.1
2017-Apr-20 19:30N 43°28' E 007°39'815.3
2017-Apr-20 19:00N 43°33' E 007°47'1914.9
2017-Apr-20 17:42N 43°47' E 008°05'314.5
2017-Apr-20 17:30N 43°50' E 008°08'714.4
2017-Apr-20 17:00N 43°55' E 008°15'714.3
2017-Apr-20 16:30N 44°00' E 008°21'714.0
2017-Apr-20 16:01N 44°06' E 008°27'713.3
2017-Apr-20 15:30N 44°12' E 008°32'612.6
2017-Apr-20 15:00N 44°18' E 008°32'2 3.9
2017-Apr-20 14:27N 44°19' E 008°29'  

Dump ship's entire track history